Time;durP1;ratioP1;P1;durP2;ratioP2;P2;SDS_P1;SDS_P2;PMS_P1;PMS_P2;Temp;Humidity;BMP_temperature;BMP_pressure;BME280_temperature;BME280_humidity;BME280_pressure;Samples;Min_cycle;Max_cycle;Signal;HPM_P1;HPM_P2
2022/08/26 00:00:14;;;;;;;14.60;4.10;;;;;;;25.69;35.65;100113.97;106139;1271;107924;-84
2022/08/26 00:03:06;;;;;;;8.60;3.90;;;;;;;25.64;35.90;100111.55;106230;1270;97183;-83
2022/08/26 00:05:40;;;;;;;15.50;4.50;;;;;;;25.58;36.13;100111.92;106233;1271;96454;-83
2022/08/26 00:08:14;;;;;;;8.00;4.20;;;;;;;25.53;36.61;100113.20;106060;1271;137679;-84
2022/08/26 00:10:47;;;;;;;14.30;3.90;;;;;;;25.46;36.96;100117.54;106310;1270;107771;-83
2022/08/26 00:13:20;;;;;;;32.90;18.30;;;;;;;25.38;37.23;100112.98;106078;1271;138451;-83
2022/08/26 00:15:52;;;;;;;11.30;5.90;;;;;;;25.31;37.53;100113.66;106142;1271;96509;-83
2022/08/26 00:18:25;;;;;;;14.30;4.80;;;;;;;25.24;37.65;100113.98;106176;1270;137892;-83
2022/08/26 00:20:57;;;;;;;9.30;4.80;;;;;;;25.17;37.84;100110.27;106229;1271;110118;-84
2022/08/26 00:23:29;;;;;;;8.50;4.20;;;;;;;25.11;38.05;100111.84;106227;1270;108759;-84
2022/08/26 00:26:03;;;;;;;13.70;4.30;;;;;;;25.05;37.99;100111.39;106191;1270;138410;-84
2022/08/26 00:28:39;;;;;;;10.00;4.40;;;;;;;24.99;37.99;100109.94;106142;1271;96473;-84
2022/08/26 00:31:11;;;;;;;7.90;4.20;;;;;;;24.95;37.94;100110.47;106060;1271;137649;-85
2022/08/26 00:33:44;;;;;;;9.90;4.00;;;;;;;24.92;37.64;100106.30;106301;1270;110059;-84
2022/08/26 00:36:16;;;;;;;9.70;3.60;;;;;;;24.90;37.68;100106.91;106352;1270;109344;-83
2022/08/26 00:38:51;;;;;;;8.20;4.10;;;;;;;24.87;37.68;100104.90;106312;1270;109077;-84
2022/08/26 00:41:23;;;;;;;8.40;3.70;;;;;;;24.85;37.62;100103.87;106182;1271;96498;-84
2022/08/26 00:43:56;;;;;;;10.60;3.90;;;;;;;24.82;37.58;100106.80;106099;1271;138564;-84
2022/08/26 00:46:33;;;;;;;13.90;4.20;;;;;;;24.80;37.62;100105.44;106255;1270;110934;-82
2022/08/26 00:49:12;;;;;;;7.90;4.10;;;;;;;24.78;37.67;100110.91;106145;1271;139309;-84
2022/08/26 00:51:48;;;;;;;6.70;3.90;;;;;;;24.77;37.78;100107.29;106338;1271;107752;-85
2022/08/26 00:54:23;;;;;;;10.90;4.00;;;;;;;24.76;37.78;100111.11;106277;1270;96457;-84
2022/08/26 00:57:01;;;;;;;15.60;4.40;;;;;;;24.74;37.68;100113.53;106200;1271;96523;-86
2022/08/26 00:59:35;;;;;;;12.80;4.50;;;;;;;24.72;37.71;100114.98;106280;1270;111098;-85
2022/08/26 01:02:10;;;;;;;10.70;4.20;;;;;;;24.71;37.60;100116.66;106115;1271;137748;-84
2022/08/26 01:04:54;;;;;;;17.50;3.70;;;;;;;24.70;37.57;100117.28;106323;1270;107296;-82
2022/08/26 01:07:30;;;;;;;8.40;3.90;;;;;;;24.69;37.58;100113.60;107713;1270;139704;-83
2022/08/26 01:10:06;;;;;;;8.50;3.70;;;;;;;24.68;37.43;100115.86;107123;1271;96437;-83
2022/08/26 01:12:42;;;;;;;9.70;4.00;;;;;;;24.68;37.48;100113.16;106376;1271;137737;-85
2022/08/26 01:15:19;;;;;;;10.20;3.00;;;;;;;24.68;37.32;100112.89;106199;1271;107480;-82
2022/08/26 01:17:50;;;;;;;;;;;;;;;24.67;37.17;100112.91;106301;1270;108858;-83
2022/08/26 01:20:34;;;;;;;10.90;3.70;;;;;;;24.66;37.18;100113.63;105081;1271;124451;-82
2022/08/26 01:23:08;;;;;;;12.60;3.90;;;;;;;24.64;37.30;100112.00;106653;1271;96467;-82
2022/08/26 01:25:44;;;;;;;10.50;3.40;;;;;;;24.62;37.17;100106.34;107762;1270;137776;-83
2022/08/26 01:28:21;;;;;;;12.20;3.80;;;;;;;24.60;37.25;100108.13;107821;1271;107900;-81
2022/08/26 01:30:56;;;;;;;9.30;3.40;;;;;;;24.58;37.17;100106.69;107641;1271;138279;-84
2022/08/26 01:33:34;;;;;;;12.00;3.70;;;;;;;24.56;37.30;100111.52;107804;1271;94626;-86
2022/08/26 01:36:15;;;;;;;10.50;3.50;;;;;;;24.52;37.09;100111.55;107831;1270;94521;-85
2022/08/26 01:38:47;;;;;;;11.60;3.70;;;;;;;24.50;37.20;100111.53;107731;1271;138236;-84
2022/08/26 01:41:21;;;;;;;13.40;3.70;;;;;;;24.48;37.45;100110.85;107746;1271;109197;-83
2022/08/26 01:44:01;;;;;;;12.00;3.80;;;;;;;24.44;37.41;100109.05;107750;1270;139245;-84
2022/08/26 01:46:34;;;;;;;10.90;3.80;;;;;;;24.43;37.58;100110.98;107841;1270;94769;-82
2022/08/26 01:49:10;;;;;;;14.50;4.20;;;;;;;24.41;37.63;100104.54;107698;1270;140224;-83
2022/08/26 01:51:43;;;;;;;11.80;3.50;;;;;;;24.38;37.58;100107.98;107847;1270;111360;-81
2022/08/26 01:54:15;;;;;;;11.10;3.40;;;;;;;24.35;37.56;100107.38;107789;1269;108930;-80
2022/08/26 01:56:52;;;;;;;10.60;4.10;;;;;;;24.33;37.64;100107.59;107832;1270;108672;-81
2022/08/26 01:59:25;;;;;;;8.40;3.50;;;;;;;24.31;37.73;100106.91;107849;1270;96299;-80
2022/08/26 02:01:58;;;;;;;11.50;3.40;;;;;;;24.30;37.69;100106.86;106572;1271;137824;-81
2022/08/26 02:04:34;;;;;;;10.60;4.30;;;;;;;24.29;37.55;100108.90;106236;1270;110940;-81
2022/08/26 02:07:09;;;;;;;15.00;3.90;;;;;;;24.28;37.53;100106.27;106103;1270;139974;-80
2022/08/26 02:09:42;;;;;;;10.20;3.60;;;;;;;24.27;37.54;100108.52;106248;1270;109072;-81
2022/08/26 02:12:18;;;;;;;9.90;3.80;;;;;;;24.26;37.52;100108.21;106238;1270;96494;-80
2022/08/26 02:14:53;;;;;;;14.80;3.80;;;;;;;24.26;37.50;100112.34;106244;1271;96816;-80
2022/08/26 02:17:40;;;;;;;11.60;3.70;;;;;;;24.24;37.37;100111.81;106252;1270;111199;-82
2022/08/26 02:20:15;;;;;;;10.40;3.60;;;;;;;24.21;37.32;100109.39;106197;1271;138709;-80
2022/08/26 02:22:48;;;;;;;14.20;3.90;;;;;;;24.19;37.33;100111.49;106278;1270;108945;-82
2022/08/26 02:25:25;;;;;;;10.20;3.50;;;;;;;24.18;37.27;100106.33;106028;1271;138031;-82
2022/08/26 02:27:58;;;;;;;13.40;4.10;;;;;;;24.14;37.25;100105.05;106275;1271;96495;-81
2022/08/26 02:30:33;;;;;;;10.00;3.70;;;;;;;24.11;37.28;100103.15;106182;1270;137829;-79
2022/08/26 02:33:07;;;;;;;11.20;3.70;;;;;;;24.09;37.31;100099.79;106343;1271;108856;-79
2022/08/26 02:35:40;;;;;;;9.90;3.30;;;;;;;24.11;37.31;100102.70;106357;1271;109234;-80
2022/08/26 02:38:12;;;;;;;11.90;3.70;;;;;;;24.10;37.31;100107.69;106127;1270;139525;-80
2022/08/26 02:40:44;;;;;;;9.80;3.90;;;;;;;24.09;37.37;100102.67;106297;1271;96485;-82
2022/08/26 02:43:19;;;;;;;10.40;4.00;;;;;;;24.08;37.54;100101.64;106174;1271;139058;-81
2022/08/26 02:46:03;;;;;;;10.50;3.70;;;;;;;24.09;37.39;100099.27;106266;1271;109128;-80
2022/08/26 02:48:36;;;;;;;16.30;4.10;;;;;;;24.09;37.63;100101.24;106219;1271;138438;-80
2022/08/26 02:51:08;;;;;;;11.00;3.90;;;;;;;24.08;37.46;100099.67;106246;1271;96502;-79
2022/08/26 02:53:41;;;;;;;17.50;4.10;;;;;;;24.09;37.38;100098.77;106219;1270;96551;-79
2022/08/26 02:56:13;;;;;;;8.10;3.90;;;;;;;24.07;37.43;100099.14;106180;1271;139418;-80
2022/08/26 02:58:46;;;;;;;11.50;3.90;;;;;;;24.05;37.32;100097.66;106231;1271;110088;-80
2022/08/26 03:01:33;;;;;;;11.10;3.60;;;;;;;24.04;37.62;100097.92;106084;1271;139642;-80
2022/08/26 03:04:11;;;;;;;8.70;3.70;;;;;;;24.01;37.54;100095.16;106210;1271;98030;-80
2022/08/26 03:06:43;;;;;;;9.00;4.20;;;;;;;23.98;37.58;100095.24;106271;1270;138308;-80
2022/08/26 03:09:24;;;;;;;10.90;4.10;;;;;;;23.96;37.85;100094.20;106205;1271;111101;-81
2022/08/26 03:11:57;;;;;;;9.80;3.90;;;;;;;23.93;38.06;100091.71;106211;1271;109224;-80
2022/08/26 03:14:29;;;;;;;16.30;4.00;;;;;;;23.88;38.09;100091.96;106023;1271;139418;-80
2022/08/26 03:17:01;;;;;;;9.00;3.90;;;;;;;23.86;38.00;100092.52;106239;1271;96499;-80
2022/08/26 03:19:34;;;;;;;8.60;3.60;;;;;;;23.84;38.03;100095.16;106133;1271;137725;-80
2022/08/26 03:22:07;;;;;;;8.90;3.60;;;;;;;23.82;38.00;100095.67;106224;1269;110090;-81
2022/08/26 03:24:39;;;;;;;10.30;3.70;;;;;;;23.80;37.96;100095.88;106088;1270;137972;-81
2022/08/26 03:27:17;;;;;;;12.00;4.40;;;;;;;23.78;38.00;100095.87;106173;1270;108930;-81
2022/08/26 03:32:43;;;;;;;11.40;4.30;;;;;;;23.72;38.25;100095.56;106089;1271;139353;-81
2022/08/26 03:35:15;;;;;;;10.10;4.20;;;;;;;23.70;38.21;100095.36;106232;1271;111356;-81
2022/08/26 03:37:47;;;;;;;10.90;4.00;;;;;;;23.68;38.45;100095.36;106108;1271;137797;-82
2022/08/26 03:40:20;;;;;;;9.70;3.60;;;;;;;23.66;38.43;100091.85;106145;1271;108793;-82
2022/08/26 03:42:53;;;;;;;5.30;3.50;;;;;;;23.64;38.52;100091.13;106075;1271;139549;-82
2022/08/26 03:45:26;;;;;;;13.10;4.10;;;;;;;23.62;38.53;100087.73;106222;1271;96594;-81
2022/08/26 03:47:58;;;;;;;11.90;4.10;;;;;;;23.62;38.59;100087.42;106292;1271;111106;-80
2022/08/26 03:50:30;;;;;;;8.30;4.40;;;;;;;23.61;38.54;100088.17;106169;1271;138917;-80
2022/08/26 03:53:06;;;;;;;15.20;6.40;;;;;;;23.61;38.74;100084.98;106202;1271;108896;-81
2022/08/26 03:55:44;;;;;;;13.60;4.40;;;;;;;23.61;38.96;100082.68;106129;1271;138709;-81
2022/08/26 03:58:17;;;;;;;9.50;4.70;;;;;;;23.62;39.30;100084.50;106217;1271;96567;-81
2022/08/26 04:00:50;;;;;;;9.10;4.60;;;;;;;23.64;39.66;100082.77;106109;1271;137939;-81
2022/08/26 04:06:16;;;;;;;8.30;4.30;;;;;;;23.68;40.25;100082.23;106189;1271;108948;-80
2022/08/26 04:08:49;;;;;;;12.70;4.60;;;;;;;23.69;40.47;100080.34;106072;1270;137696;-80
2022/08/26 04:11:23;;;;;;;12.10;5.00;;;;;;;23.70;41.18;100081.67;106145;1271;96445;-81
2022/08/26 04:13:56;;;;;;;14.30;5.60;;;;;;;23.69;41.90;100084.05;106119;1270;140197;-82
2022/08/26 04:16:31;;;;;;;12.90;5.90;;;;;;;23.67;42.36;100084.98;106200;1271;107835;-81
2022/08/26 04:19:04;;;;;;;10.50;5.50;;;;;;;23.63;42.79;100086.44;106088;1271;139547;-82
2022/08/26 04:21:37;;;;;;;11.20;5.40;;;;;;;23.57;43.23;100084.63;106208;1270;96487;-80
2022/08/26 04:24:11;;;;;;;11.10;5.80;;;;;;;23.53;43.59;100087.13;106269;1270;96564;-80
2022/08/26 04:26:44;;;;;;;14.40;6.60;;;;;;;23.53;43.89;100088.92;106074;1271;138470;-80
2022/08/26 04:29:20;;;;;;;13.80;5.80;;;;;;;23.58;44.11;100084.70;106208;1271;107792;-81
2022/08/26 04:31:54;;;;;;;11.30;5.90;;;;;;;23.67;44.33;100083.73;106050;1270;138762;-86
2022/08/26 04:34:28;;;;;;;11.40;5.70;;;;;;;23.99;44.39;100079.95;106185;1270;96481;-82
2022/08/26 04:37:01;;;;;;;17.20;6.30;;;;;;;24.50;44.27;100085.01;106519;1270;137938;-83
2022/08/26 04:39:34;;;;;;;16.50;6.00;;;;;;;25.02;43.78;100085.35;107833;1270;111061;-83
2022/08/26 04:42:07;;;;;;;18.50;6.40;;;;;;;25.46;43.16;100078.04;106362;1270;107854;-82
2022/08/26 04:44:39;;;;;;;22.90;7.00;;;;;;;25.85;42.71;100078.14;106089;1270;139048;-82
2022/08/26 04:47:12;;;;;;;24.20;6.80;;;;;;;26.17;42.29;100080.91;106204;1270;96466;-83
2022/08/26 04:49:44;;;;;;;19.00;6.40;;;;;;;26.42;41.70;100079.77;106130;1270;137735;-83
2022/08/26 04:52:16;;;;;;;26.40;7.00;;;;;;;26.69;41.59;100080.63;106175;1271;109990;-83
2022/08/26 04:54:48;;;;;;;16.60;6.70;;;;;;;26.89;41.08;100081.61;106040;1270;138247;-82
2022/08/26 04:57:22;;;;;;;20.40;7.40;;;;;;;26.98;40.81;100081.73;106175;1270;107857;-83
2022/08/26 04:59:54;;;;;;;20.90;6.70;;;;;;;27.18;40.72;100085.19;107824;1270;96968;-84
2022/08/26 05:02:27;;;;;;;22.60;6.50;;;;;;;27.34;40.63;100080.77;106756;1270;139336;-84
2022/08/26 05:04:59;;;;;;;22.80;7.10;;;;;;;27.52;40.47;100083.35;106205;1271;111003;-84
2022/08/26 05:07:31;;;;;;;22.90;6.30;;;;;;;27.85;40.02;100085.39;106822;1270;139642;-83
2022/08/26 05:10:05;;;;;;;24.40;7.10;;;;;;;27.98;39.71;100086.31;107099;1270;107760;-84
2022/08/26 05:12:39;;;;;;;19.70;6.50;;;;;;;28.49;39.28;100085.02;106157;1270;138673;-83
2022/08/26 05:15:15;;;;;;;23.00;6.50;;;;;;;29.29;38.65;100087.44;106295;1270;96468;-82
2022/08/26 05:17:49;;;;;;;23.00;7.50;;;;;;;30.05;37.80;100081.92;106284;1270;111132;-83
2022/08/26 05:20:21;;;;;;;21.00;6.60;;;;;;;30.81;37.03;100082.55;106187;1270;138224;-83
2022/08/26 05:22:59;;;;;;;23.90;6.00;;;;;;;31.59;35.73;100082.11;106302;1270;108873;-84
2022/08/26 05:25:32;;;;;;;34.60;13.30;;;;;;;32.24;34.71;100082.96;106226;1270;137912;-83
2022/08/26 05:28:04;;;;;;;36.00;9.20;;;;;;;32.81;33.98;100083.78;106364;1271;96468;-83
2022/08/26 05:30:37;;;;;;;26.30;7.70;;;;;;;33.34;33.25;100084.63;106227;1270;139298;-83
2022/08/26 05:33:10;;;;;;;22.50;7.30;;;;;;;33.82;32.64;100080.44;106278;1270;107897;-78
2022/08/26 05:35:44;;;;;;;17.40;6.00;;;;;;;34.31;31.55;100079.65;106860;1270;108778;-84
2022/08/26 05:38:18;;;;;;;21.10;6.40;;;;;;;34.72;30.92;100077.09;107705;1270;138416;-83
2022/08/26 05:40:51;;;;;;;23.80;5.90;;;;;;;35.12;30.41;100077.60;107883;1270;94449;-83
2022/08/26 05:43:24;;;;;;;24.40;6.20;;;;;;;35.32;29.69;100081.27;107744;1270;139763;-82
2022/08/26 05:45:57;;;;;;;15.30;5.60;;;;;;;34.99;29.21;100080.29;107849;1270;108369;-83
2022/08/26 05:48:29;;;;;;;14.50;5.60;;;;;;;34.46;29.35;100083.73;107764;1270;138372;-84
2022/08/26 05:51:05;;;;;;;19.60;5.70;;;;;;;34.05;29.45;100086.21;107784;1270;94854;-87
2022/08/26 05:53:40;;;;;;;18.10;5.90;;;;;;;33.67;29.48;100087.92;107834;1270;94635;-86
2022/08/26 05:56:26;;;;;;;16.90;6.20;;;;;;;33.38;30.05;100090.80;107706;1270;138386;-84
2022/08/26 05:59:01;;;;;;;17.30;5.80;;;;;;;33.23;29.81;100093.79;107831;1270;108816;-81
2022/08/26 06:01:35;;;;;;;17.20;5.50;;;;;;;32.95;29.99;100091.14;106460;1270;138034;-82
2022/08/26 06:04:08;;;;;;;22.60;6.10;;;;;;;32.83;30.48;100091.16;106279;1270;96516;-83
2022/08/26 06:06:40;;;;;;;20.60;5.70;;;;;;;33.06;30.30;100093.14;106100;1270;138760;-81
2022/08/26 06:09:16;;;;;;;17.80;5.90;;;;;;;33.45;30.11;100091.41;106252;1270;110062;-81
2022/08/26 06:11:49;;;;;;;16.40;5.60;;;;;;;33.64;29.78;100084.10;106299;1270;106543;-82
2022/08/26 06:14:21;;;;;;;20.80;6.30;;;;;;;33.61;29.83;100089.08;106248;1270;141561;-82
2022/08/26 06:16:54;;;;;;;16.80;5.90;;;;;;;33.69;29.81;100085.77;106343;1270;96590;-81
2022/08/26 06:19:26;;;;;;;26.00;5.70;;;;;;;33.99;29.17;100080.95;106152;1270;138753;-81
2022/08/26 06:25:36;;;;;;;20.70;5.80;;;;;;;34.81;28.85;100074.89;107094;1270;109907;-82
2022/08/26 06:27:47;;;;;;;18.50;5.20;;;;;;;35.97;27.69;100076.81;106168;1270;106798;-81
2022/08/26 06:30:21;;;;;;;20.80;5.60;;;;;;;36.35;27.42;100073.36;106193;1270;96443;-80
2022/08/26 06:32:56;;;;;;;22.40;5.40;;;;;;;36.75;26.90;100081.95;106239;1270;96469;-83
2022/08/26 06:35:28;;;;;;;21.50;6.00;;;;;;;36.95;26.53;100084.65;106220;1270;111264;-82
2022/08/26 06:38:02;;;;;;;21.30;6.10;;;;;;;36.92;26.65;100089.29;106147;1270;139041;-80
2022/08/26 06:40:35;;;;;;;16.30;5.40;;;;;;;36.97;26.84;100086.93;106203;1270;108933;-81
2022/08/26 06:43:09;;;;;;;20.20;5.70;;;;;;;37.09;26.52;100090.61;107517;1270;139256;-82
2022/08/26 06:45:43;;;;;;;19.30;5.40;;;;;;;37.29;26.38;100089.52;106201;1270;97852;-80
2022/08/26 06:48:18;;;;;;;17.60;5.50;;;;;;;37.35;26.31;100088.80;106274;1270;111441;-80
2022/08/26 06:50:50;;;;;;;26.10;5.70;;;;;;;37.37;26.61;100090.16;106678;1270;137654;-80
2022/08/26 06:53:22;;;;;;;13.10;4.70;;;;;;;37.54;26.39;100095.59;106128;1270;108797;-82
2022/08/26 06:55:54;;;;;;;16.90;5.40;;;;;;;37.63;26.48;100090.73;107354;1270;139640;-80
2022/08/26 06:58:27;;;;;;;20.00;5.60;;;;;;;37.70;26.05;100089.44;106227;1270;96459;-80
2022/08/26 07:00:59;;;;;;;18.30;5.80;;;;;;;37.83;25.76;100091.66;106114;1270;139531;-81
2022/08/26 07:03:42;;;;;;;22.00;5.70;;;;;;;38.00;25.64;100084.96;106217;1270;109416;-81
2022/08/26 07:06:18;;;;;;;15.70;5.20;;;;;;;38.17;25.29;100087.11;106119;1271;108283;-80
2022/08/26 07:08:52;;;;;;;16.70;5.70;;;;;;;38.48;25.30;100087.24;106054;1270;136598;-80
2022/08/26 07:11:24;;;;;;;23.90;5.60;;;;;;;38.89;25.01;100087.46;106204;1270;96485;-80
2022/08/26 07:13:58;;;;;;;14.60;5.60;;;;;;;39.35;24.76;100085.81;106140;1270;139214;-80
2022/08/26 07:16:31;;;;;;;20.90;6.10;;;;;;;39.89;24.32;100086.45;106220;1270;107841;-80
2022/08/26 07:19:05;;;;;;;15.90;5.30;;;;;;;40.41;23.25;100082.36;106037;1270;138296;-80
2022/08/26 07:21:42;;;;;;;12.40;5.50;;;;;;;40.77;22.78;100083.97;106209;1270;96486;-80
2022/08/26 07:24:15;;;;;;;14.30;5.30;;;;;;;41.11;22.76;100082.87;106220;1270;96706;-80
2022/08/26 07:26:47;;;;;;;18.90;5.90;;;;;;;41.38;22.19;100077.71;106088;1269;137908;-78
2022/08/26 07:29:22;;;;;;;18.30;5.40;;;;;;;41.61;21.70;100076.32;106187;1270;108790;-81
2022/08/26 07:31:57;;;;;;;19.60;5.80;;;;;;;41.76;21.41;100079.58;106051;1271;138879;-81
2022/08/26 07:34:30;;;;;;;18.90;5.80;;;;;;;42.00;21.45;100077.95;106175;1270;96599;-80
2022/08/26 07:37:05;;;;;;;17.40;5.30;;;;;;;42.34;21.23;100071.41;106106;1270;139158;-80
2022/08/26 07:39:40;;;;;;;13.40;5.40;;;;;;;42.74;20.72;100072.42;106308;1270;111462;-81
2022/08/26 07:42:18;;;;;;;15.10;4.90;;;;;;;43.10;20.47;100070.89;106213;1270;109114;-81
2022/08/26 07:44:50;;;;;;;20.10;5.60;;;;;;;43.50;19.87;100075.62;106186;1270;137596;-81
2022/08/26 07:47:22;;;;;;;22.00;6.30;;;;;;;43.84;19.44;100072.48;106257;1271;96497;-81
2022/08/26 07:49:59;;;;;;;16.50;5.10;;;;;;;44.17;18.86;100073.23;106208;1270;138531;-80
2022/08/26 07:52:32;;;;;;;18.90;5.30;;;;;;;44.47;18.79;100071.59;106274;1270;111357;-78
2022/08/26 07:55:07;;;;;;;15.30;5.40;;;;;;;44.84;18.74;100069.27;106151;1270;138021;-80
2022/08/26 07:57:39;;;;;;;15.50;4.90;;;;;;;45.28;18.27;100063.41;106255;1270;109167;-80
2022/08/26 08:00:16;;;;;;;18.60;4.90;;;;;;;45.66;17.85;100062.77;106155;1271;96516;-81
2022/08/26 08:02:48;;;;;;;15.80;4.70;;;;;;;46.02;17.78;100064.86;105998;1271;138779;-82
2022/08/26 08:05:23;;;;;;;16.60;5.00;;;;;;;46.42;17.65;100061.15;106207;1270;110108;-79
2022/08/26 08:08:08;;;;;;;14.60;5.10;;;;;;;46.88;17.13;100064.23;106135;1270;137922;-79
2022/08/26 08:10:59;;;;;;;18.80;4.60;;;;;;;47.24;16.65;100060.38;106216;1270;109372;-78
2022/08/26 08:13:31;;;;;;;13.20;4.70;;;;;;;47.55;16.47;100059.30;106103;1270;139039;-79
2022/08/26 08:16:05;;;;;;;18.50;4.50;;;;;;;47.84;16.17;100062.41;106294;1270;96473;-81
2022/08/26 08:18:43;;;;;;;9.50;4.40;;;;;;;48.10;15.71;100062.01;106138;1270;138938;-80
2022/08/26 08:21:17;;;;;;;17.80;5.00;;;;;;;48.17;15.49;100058.56;106206;1269;108914;-81
2022/08/26 08:23:54;;;;;;;18.30;5.00;;;;;;;48.18;15.36;100057.55;106221;1270;107823;-78
2022/08/26 08:26:27;;;;;;;17.50;4.60;;;;;;;48.23;15.42;100054.70;106145;1268;137815;-77
2022/08/26 08:28:59;;;;;;;20.60;4.30;;;;;;;48.38;15.68;100054.40;106357;1270;96375;-77
2022/08/26 08:31:34;;;;;;;11.00;4.30;;;;;;;48.52;15.04;100047.23;106153;1270;137610;-78
2022/08/26 08:34:28;;;;;;;10.70;4.30;;;;;;;48.46;15.16;100045.71;106248;1270;109302;-78
2022/08/26 08:37:00;;;;;;;13.60;4.30;;;;;;;48.44;15.86;100050.23;106184;1270;139840;-78
2022/08/26 08:39:34;;;;;;;17.50;4.30;;;;;;;48.40;15.48;100047.75;106279;1270;97858;-78
2022/08/26 08:42:36;;;;;;;16.90;4.40;;;;;;;48.29;14.69;100048.90;106259;1270;97804;-78
2022/08/26 08:45:14;;;;;;;12.80;4.50;;;;;;;47.88;14.81;100047.60;106314;1270;111428;-77
2022/08/26 08:47:53;;;;;;;13.60;4.60;;;;;;;47.22;15.09;100042.33;106278;1270;108284;-76
2022/08/26 08:50:29;;;;;;;7.80;4.10;;;;;;;46.52;15.98;100039.27;106187;1270;138221;-77
2022/08/26 08:53:12;;;;;;;16.20;4.50;;;;;;;45.76;16.05;100046.50;106260;1270;98527;-77
2022/08/26 08:55:58;;;;;;;16.60;4.10;;;;;;;45.14;16.38;100043.63;107621;1270;139663;-77
2022/08/26 08:58:42;;;;;;;12.90;4.40;;;;;;;44.54;17.04;100039.63;107861;1270;112483;-77
2022/08/26 09:01:24;;;;;;;12.60;4.30;;;;;;;44.18;17.29;100034.77;107751;1271;138864;-77
2022/08/26 09:04:18;;;;;;;15.80;4.70;;;;;;;44.23;18.36;100031.41;107830;1270;109052;-77
2022/08/26 09:06:55;;;;;;;15.20;4.90;;;;;;;44.07;17.80;100034.20;107147;1270;138559;-77
2022/08/26 09:09:35;;;;;;;11.80;4.70;;;;;;;43.89;17.80;100040.06;107571;1270;97713;-77
2022/08/26 09:12:11;;;;;;;12.00;4.70;;;;;;;43.75;18.35;100035.60;107113;1270;112433;-76
2022/08/26 09:14:45;;;;;;;14.70;4.10;;;;;;;43.66;18.44;100039.09;106921;1270;138547;-77
2022/08/26 09:17:32;;;;;;;13.90;4.80;;;;;;;43.63;18.22;100033.96;107861;1270;108808;-77
2022/08/26 09:20:12;;;;;;;18.10;4.80;;;;;;;43.51;18.69;100035.05;106559;1270;138764;-77
2022/08/26 09:22:44;;;;;;;16.70;4.90;;;;;;;43.69;18.66;100039.05;106368;1270;97848;-77
2022/08/26 09:25:16;;;;;;;11.00;4.50;;;;;;;43.72;18.43;100037.13;106070;1271;137904;-77
2022/08/26 09:27:51;;;;;;;11.80;4.60;;;;;;;43.62;18.39;100037.14;106978;1270;108953;-77
2022/08/26 09:30:27;;;;;;;13.70;5.20;;;;;;;43.56;18.96;100030.44;107856;1270;108990;-77
2022/08/26 09:33:03;;;;;;;10.60;4.60;;;;;;;43.25;19.16;100024.08;107481;1268;98243;-77
2022/08/26 09:35:46;;;;;;;13.00;4.80;;;;;;;42.91;19.07;100027.92;106283;1270;97838;-77
2022/08/26 09:38:28;;;;;;;14.10;4.60;;;;;;;42.58;19.38;100021.44;107731;1271;138376;-77
2022/08/26 09:41:03;;;;;;;15.00;5.10;;;;;;;42.35;18.99;100025.98;107180;1271;110507;-76
2022/08/26 09:43:36;;;;;;;14.30;4.90;;;;;;;42.01;18.94;100019.99;106742;1268;138555;-76
2022/08/26 09:46:18;;;;;;;19.10;5.00;;;;;;;41.70;19.50;100025.73;107855;1270;96158;-77
2022/08/26 09:48:50;;;;;;;14.30;4.90;;;;;;;41.37;19.45;100023.77;107003;1270;138378;-77
2022/08/26 09:51:34;;;;;;;15.60;4.60;;;;;;;41.01;19.67;100023.42;106275;1271;112604;-77
2022/08/26 09:54:06;;;;;;;15.60;5.20;;;;;;;40.63;19.96;100021.73;106318;1270;108917;-76
2022/08/26 09:56:40;;;;;;;12.80;4.70;;;;;;;40.24;20.04;100019.98;106180;1269;138500;-77
2022/08/26 09:59:13;;;;;;;15.20;4.40;;;;;;;39.85;20.56;100026.26;106308;1270;98097;-76
2022/08/26 10:01:49;;;;;;;15.00;4.50;;;;;;;39.50;20.64;100026.29;106849;1270;139209;-77
2022/08/26 10:04:25;;;;;;;13.00;4.60;;;;;;;39.12;20.99;100024.81;106418;1270;112484;-76
2022/08/26 10:07:00;;;;;;;10.90;4.00;;;;;;;38.81;21.99;100020.50;106124;1270;138498;-76
2022/08/26 10:09:37;;;;;;;11.90;4.20;;;;;;;38.56;22.33;100021.13;106290;1270;109015;-77
2022/08/26 10:12:13;;;;;;;11.80;4.60;;;;;;;38.33;22.65;100019.54;106410;1271;97836;-77
2022/08/26 10:14:51;;;;;;;16.00;4.60;;;;;;;38.38;23.09;100015.14;107745;1270;139169;-77
2022/08/26 10:17:30;;;;;;;13.70;4.50;;;;;;;38.22;23.30;100016.05;107877;1270;112662;-77
2022/08/26 10:20:08;;;;;;;16.00;4.80;;;;;;;37.92;23.28;100009.61;107766;1270;137971;-78
2022/08/26 10:22:59;;;;;;;13.50;4.30;;;;;;;37.69;23.57;100009.54;107825;1270;108821;-77
2022/08/26 10:25:37;;;;;;;11.70;4.80;;;;;;;37.79;24.00;100006.73;107751;1270;138196;-77
2022/08/26 10:28:22;;;;;;;16.40;4.90;;;;;;;37.82;23.84;100005.48;106576;1268;97733;-77
2022/08/26 10:31:00;;;;;;;10.70;4.60;;;;;;;37.83;24.03;100007.95;107723;1270;140701;-77
2022/08/26 10:33:32;;;;;;;17.00;4.50;;;;;;;37.95;23.75;100008.48;107879;1270;108871;-77
2022/08/26 10:39:20;;;;;;;16.60;4.70;;;;;;;37.95;23.25;100000.05;107855;1270;96161;-78
2022/08/26 10:41:57;;;;;;;15.00;4.90;;;;;;;37.89;23.72;100001.21;106453;1270;97848;-78
2022/08/26 10:44:34;;;;;;;14.70;5.20;;;;;;;37.94;22.72;100001.84;106266;1270;137961;-77
2022/08/26 10:47:15;;;;;;;13.40;4.30;;;;;;;37.76;22.38;100000.59;106354;1270;108863;-77
2022/08/26 10:49:49;;;;;;;12.50;4.80;;;;;;;37.65;23.68;100000.17;107732;1270;137976;-78
2022/08/26 10:52:27;;;;;;;14.90;4.60;;;;;;;37.72;23.89;99992.87;107763;1271;96026;-79
2022/08/26 10:55:10;;;;;;;13.30;5.00;;;;;;;37.82;23.86;99993.02;107788;1269;139203;-79
2022/08/26 10:57:51;;;;;;;9.20;4.40;;;;;;;37.74;23.76;99988.91;106964;1270;112940;-79
2022/08/26 11:03:33;;;;;;;10.00;4.90;;;;;;;37.37;23.58;99982.55;107848;1270;108984;-79
2022/08/26 11:06:26;;;;;;;8.70;4.30;;;;;;;37.12;23.60;99988.18;106908;1270;97854;-77
2022/08/26 11:09:01;;;;;;;13.40;4.40;;;;;;;36.94;23.68;99980.98;107096;1271;96495;-78
2022/08/26 11:11:51;;;;;;;9.40;5.00;;;;;;;37.01;23.26;99980.49;106283;1270;111658;-78
2022/08/26 11:14:36;;;;;;;10.90;4.60;;;;;;;36.92;23.66;99978.97;106341;1270;138068;-77
2022/08/26 11:17:56;;;;;;;10.80;4.80;;;;;;;36.66;22.92;99974.14;106316;1270;107866;-78
2022/08/26 11:20:38;;;;;;;10.20;4.90;;;;;;;36.50;22.56;99971.06;106158;1269;138502;-78
2022/08/26 11:23:46;;;;;;;12.90;5.70;;;;;;;36.23;22.37;99975.14;106315;1270;97809;-77
2022/08/26 11:26:36;;;;;;;11.00;4.90;;;;;;;35.86;22.57;99967.34;106199;1270;139092;-78
2022/08/26 11:30:02;;;;;;;15.30;5.50;;;;;;;35.84;23.14;99965.94;106356;1270;108881;-77
2022/08/26 11:32:49;;;;;;;14.70;5.50;;;;;;;35.79;22.61;99961.84;106080;1270;139514;-78
2022/08/26 11:35:50;;;;;;;11.00;5.40;;;;;;;35.52;22.82;99959.83;106344;1270;97824;-77
2022/08/26 11:38:29;;;;;;;14.70;5.70;;;;;;;35.25;23.09;99958.84;105736;1276;137688;-77
2022/08/26 11:41:12;;;;;;;14.80;5.60;;;;;;;34.96;23.30;99955.85;107041;1276;112586;-77
2022/08/26 11:43:46;;;;;;;11.80;5.10;;;;;;;34.91;23.98;99957.62;107287;1276;140045;-78
2022/08/26 11:46:27;;;;;;;11.20;5.30;;;;;;;34.87;23.40;99954.23;107332;1276;108823;-77
2022/08/26 11:49:05;;;;;;;11.00;5.00;;;;;;;34.90;24.02;99946.84;107335;1276;138063;-80
2022/08/26 11:51:37;;;;;;;9.50;4.80;;;;;;;35.04;24.28;99943.60;107521;1275;96171;-78
2022/08/26 11:54:14;;;;;;;12.00;5.10;;;;;;;35.14;23.84;99938.08;107497;1276;112665;-79
2022/08/26 11:56:49;;;;;;;8.90;4.60;;;;;;;35.12;23.87;99939.51;106296;1276;138927;-79
2022/08/26 11:59:32;;;;;;;11.80;5.40;;;;;;;35.12;23.91;99939.05;106558;1275;108567;-79